Time;durP1;ratioP1;P1;durP2;ratioP2;P2;SDS_P1;SDS_P2;PMS_P1;PMS_P2;Temp;Humidity;BMP_temperature;BMP_pressure;BME280_temperature;BME280_humidity;BME280_pressure;Samples;Min_cycle;Max_cycle;Signal;HPM_P1;HPM_P2
2023/07/19 00:00:45;;;;;;;0.00;0.00;;;;;;;18.22;100.00;101380.34;5032975;28;20091;-47
2023/07/19 00:03:11;;;;;;;0.00;0.00;;;;;;;18.15;100.00;101385.81;5032756;28;20108;-46
2023/07/19 00:05:36;;;;;;;0.00;0.00;;;;;;;18.14;100.00;101389.59;5032904;28;20021;-50
2023/07/19 00:08:04;;;;;;;0.00;0.00;;;;;;;18.13;100.00;101381.63;5032777;28;20053;-47
2023/07/19 00:10:30;;;;;;;0.00;0.00;;;;;;;18.13;100.00;101382.47;5032730;28;20030;-47
2023/07/19 00:12:55;;;;;;;0.00;0.00;;;;;;;18.19;100.00;101375.28;5032786;28;20029;-49
2023/07/19 00:15:21;;;;;;;0.00;0.00;;;;;;;18.24;100.00;101369.19;5032616;28;20025;-46
2023/07/19 00:17:46;;;;;;;0.00;0.00;;;;;;;18.30;100.00;101371.03;5032593;28;20040;-47
2023/07/19 00:20:12;;;;;;;0.00;0.00;;;;;;;18.35;100.00;101372.06;5032568;28;20060;-49
2023/07/19 00:22:38;;;;;;;0.00;0.00;;;;;;;18.39;100.00;101370.56;5032287;28;20361;-48
2023/07/19 00:25:05;;;;;;;0.00;0.00;;;;;;;18.42;100.00;101358.38;5032242;28;20108;-49
2023/07/19 00:27:30;;;;;;;0.00;0.00;;;;;;;18.46;100.00;101359.63;5032382;28;20071;-48
2023/07/19 00:29:55;;;;;;;0.00;0.00;;;;;;;18.49;100.00;101351.00;5032322;28;20480;-48
2023/07/19 00:32:21;;;;;;;0.00;0.00;;;;;;;18.53;100.00;101359.53;5032222;28;20030;-50
2023/07/19 00:34:47;;;;;;;0.00;0.00;;;;;;;18.53;100.00;101346.75;5032224;28;20430;-51
2023/07/19 00:37:12;;;;;;;0.00;0.00;;;;;;;18.55;100.00;101346.53;5032456;28;20056;-45
2023/07/19 00:39:37;;;;;;;0.00;0.00;;;;;;;18.57;100.00;101344.44;5032450;28;20096;-45
2023/07/19 00:42:03;;;;;;;0.00;0.00;;;;;;;18.56;100.00;101351.78;5030914;28;20057;-47
2023/07/19 00:44:28;;;;;;;0.00;0.00;;;;;;;18.60;100.00;101342.09;5032303;28;20037;-49
2023/07/19 00:46:54;;;;;;;0.00;0.00;;;;;;;18.61;100.00;101349.19;5032190;28;20108;-48
2023/07/19 00:49:19;;;;;;;0.00;0.00;;;;;;;18.57;100.00;101349.88;5032202;28;20021;-48
2023/07/19 00:51:45;;;;;;;0.00;0.00;;;;;;;18.58;100.00;101351.53;5033295;28;20120;-44
2023/07/19 00:54:10;;;;;;;0.00;0.00;;;;;;;18.57;100.00;101353.44;5033442;28;20030;-47
2023/07/19 00:56:36;;;;;;;0.00;0.00;;;;;;;18.58;100.00;101357.81;5031450;28;20049;-48
2023/07/19 00:59:02;;;;;;;0.00;0.00;;;;;;;18.51;100.00;101358.94;5032016;28;20053;-47
2023/07/19 01:01:28;;;;;;;0.00;0.00;;;;;;;18.45;100.00;101370.72;5046956;28;20033;-46
2023/07/19 01:03:53;;;;;;;0.00;0.00;;;;;;;18.41;100.00;101364.91;5031993;28;20091;-49
2023/07/19 01:06:19;;;;;;;0.00;0.00;;;;;;;18.37;100.00;101367.19;5032094;28;20061;-51
2023/07/19 01:08:46;;;;;;;0.00;0.00;;;;;;;18.38;100.00;101368.06;5031395;28;20043;-47
2023/07/19 01:11:12;;;;;;;0.00;0.00;;;;;;;18.28;100.00;101359.53;5031522;28;20507;-48
2023/07/19 01:13:37;;;;;;;0.00;0.00;;;;;;;18.27;100.00;101355.97;5031212;28;20032;-49
2023/07/19 01:16:03;;;;;;;0.00;0.00;;;;;;;18.24;100.00;101358.31;5031620;28;20113;-47
2023/07/19 01:18:28;;;;;;;0.00;0.00;;;;;;;18.23;100.00;101354.75;5032155;28;20033;-47
2023/07/19 01:20:54;;;;;;;0.00;0.00;;;;;;;18.23;100.00;101359.38;5031468;28;20090;-47
2023/07/19 01:23:19;;;;;;;0.00;0.00;;;;;;;18.17;100.00;101356.47;5031914;28;20100;-47
2023/07/19 01:25:44;;;;;;;0.00;0.00;;;;;;;18.15;100.00;101357.75;5031767;28;20422;-47
2023/07/19 01:28:10;;;;;;;0.00;0.00;;;;;;;18.10;100.00;101347.50;5031259;28;20175;-47
2023/07/19 01:30:35;;;;;;;0.00;0.00;;;;;;;18.07;100.00;101349.84;5030167;28;20061;-47
2023/07/19 01:33:01;;;;;;;0.00;0.00;;;;;;;18.02;100.00;101344.19;5031039;28;20033;-50
2023/07/19 01:35:27;;;;;;;0.00;0.00;;;;;;;18.01;100.00;101343.38;5031496;28;20049;-48
2023/07/19 01:37:52;;;;;;;0.00;0.00;;;;;;;18.06;100.00;101349.00;5031123;28;20037;-48
2023/07/19 01:40:17;;;;;;;0.00;0.00;;;;;;;18.05;100.00;101338.31;5030988;28;20457;-47
2023/07/19 01:42:43;;;;;;;0.00;0.00;;;;;;;17.99;100.00;101335.41;5030888;28;20026;-48
2023/07/19 01:45:08;;;;;;;0.00;0.00;;;;;;;18.01;100.00;101346.09;5031855;28;20507;-48
2023/07/19 01:47:34;;;;;;;0.00;0.00;;;;;;;18.00;100.00;101344.41;5030483;28;20029;-48
2023/07/19 01:50:00;;;;;;;0.00;0.00;;;;;;;17.99;100.00;101349.03;5032484;28;20108;-50
2023/07/19 01:52:25;;;;;;;0.00;0.00;;;;;;;18.01;100.00;101346.09;5031146;28;20036;-49
2023/07/19 01:54:51;;;;;;;0.00;0.00;;;;;;;18.06;100.00;101340.84;5031275;28;20460;-49
2023/07/19 01:57:16;;;;;;;0.00;0.00;;;;;;;18.10;100.00;101346.66;5030760;28;20049;-47
2023/07/19 01:59:42;;;;;;;0.00;0.00;;;;;;;18.12;100.00;101342.66;5030827;28;20334;-48
2023/07/19 02:02:07;;;;;;;0.00;0.00;;;;;;;18.16;100.00;101343.88;5030564;28;20376;-52
2023/07/19 02:04:33;;;;;;;0.00;0.00;;;;;;;18.21;100.00;101335.06;5030714;28;20033;-49
2023/07/19 02:06:58;;;;;;;0.00;0.00;;;;;;;18.21;100.00;101335.06;5030833;28;20026;-46
2023/07/19 02:09:23;;;;;;;0.00;0.00;;;;;;;18.22;100.00;101339.47;5032387;28;20036;-47
2023/07/19 02:11:49;;;;;;;0.00;0.00;;;;;;;18.19;100.00;101359.81;5034850;28;20434;-47
2023/07/19 02:14:14;;;;;;;0.00;0.00;;;;;;;18.10;100.00;101349.38;5034758;28;20025;-49
2023/07/19 02:16:40;;;;;;;0.00;0.00;;;;;;;18.06;100.00;101349.00;5035756;28;20051;-48
2023/07/19 02:19:06;;;;;;;0.00;0.00;;;;;;;18.04;100.00;101350.28;5036116;28;20033;-45
2023/07/19 02:21:31;;;;;;;0.00;0.00;;;;;;;18.02;100.00;101350.47;5036584;28;20386;-46
2023/07/19 02:23:57;;;;;;;0.00;0.00;;;;;;;17.94;100.00;101351.56;5036654;28;20021;-46
2023/07/19 02:26:23;;;;;;;0.00;0.00;;;;;;;17.89;100.00;101347.84;5036187;28;20417;-47
2023/07/19 02:28:48;;;;;;;0.00;0.00;;;;;;;17.81;100.00;101348.09;5034872;28;20108;-46
2023/07/19 02:31:14;;;;;;;0.00;0.00;;;;;;;17.75;100.00;101342.44;5034958;28;20026;-48
2023/07/19 02:33:39;;;;;;;0.00;0.00;;;;;;;17.72;100.00;101351.03;5034546;28;20075;-47
2023/07/19 02:36:05;;;;;;;0.00;0.00;;;;;;;17.67;100.00;101350.84;5034925;28;20057;-47
2023/07/19 02:38:30;;;;;;;0.00;0.00;;;;;;;17.68;100.00;101347.06;5034684;28;20472;-49
2023/07/19 02:40:59;;;;;;;0.00;0.00;;;;;;;17.68;100.00;101352.50;5034709;28;20363;-47
2023/07/19 02:43:25;;;;;;;0.00;0.00;;;;;;;17.69;100.00;101348.75;5034523;28;20045;-46
2023/07/19 02:45:54;;;;;;;0.00;0.00;;;;;;;17.64;100.00;101347.72;5034444;28;20022;-48
2023/07/19 02:48:20;;;;;;;0.00;0.00;;;;;;;17.61;100.00;101351.69;5034072;28;20427;-48
2023/07/19 02:50:46;;;;;;;0.00;0.00;;;;;;;17.57;100.00;101341.47;5034114;28;20029;-47
2023/07/19 02:53:12;;;;;;;0.00;0.00;;;;;;;17.54;100.00;101334.59;5034103;28;20029;-50
2023/07/19 02:55:37;;;;;;;0.00;0.00;;;;;;;17.55;100.00;101341.69;5033967;28;20040;-48
2023/07/19 02:58:03;;;;;;;0.00;0.00;;;;;;;17.54;100.00;101351.75;5032618;28;20124;-50
2023/07/19 03:00:28;;;;;;;0.00;0.00;;;;;;;17.56;100.00;101351.50;5033784;28;20029;-46
2023/07/19 03:02:54;;;;;;;0.00;0.00;;;;;;;17.50;100.00;101358.66;5033854;28;20030;-47
2023/07/19 03:05:22;;;;;;;0.00;0.00;;;;;;;17.50;100.00;101363.25;5033580;28;20160;-49
2023/07/19 03:07:49;;;;;;;0.00;0.00;;;;;;;17.46;100.00;101357.44;5032435;28;20091;-49
2023/07/19 03:10:14;;;;;;;0.00;0.00;;;;;;;17.39;100.00;101358.50;5033645;28;20398;-48
2023/07/19 03:12:39;;;;;;;0.00;0.00;;;;;;;17.33;100.00;101358.31;5034197;28;20049;-47
2023/07/19 03:15:06;;;;;;;0.00;0.00;;;;;;;17.28;100.00;101362.72;5033955;28;20496;-47
2023/07/19 03:17:31;;;;;;;0.00;0.00;;;;;;;17.29;100.00;101364.38;5033796;28;20025;-46
2023/07/19 03:19:56;;;;;;;0.00;0.00;;;;;;;17.29;100.00;101353.50;5033065;28;20486;-50
2023/07/19 03:22:22;;;;;;;0.00;0.00;;;;;;;17.29;100.00;101356.22;5033381;28;20021;-47
2023/07/19 03:24:47;;;;;;;0.00;0.00;;;;;;;17.28;100.00;101368.16;5033173;28;20025;-47
2023/07/19 03:27:13;;;;;;;0.00;0.00;;;;;;;17.20;100.00;101371.94;5033329;28;20387;-47
2023/07/19 03:29:38;;;;;;;0.00;0.00;;;;;;;17.20;100.00;101368.41;5033131;28;20032;-48
2023/07/19 03:32:04;;;;;;;0.00;0.00;;;;;;;17.23;100.00;101366.06;5034339;28;20439;-47
2023/07/19 03:34:29;;;;;;;0.00;0.00;;;;;;;17.29;100.00;101369.81;5034487;28;20029;-46
2023/07/19 03:36:54;;;;;;;0.00;0.00;;;;;;;17.34;100.00;101375.47;5033238;28;20021;-46
2023/07/19 03:39:20;;;;;;;0.00;0.00;;;;;;;17.34;100.00;101381.72;5033239;28;20029;-49
2023/07/19 03:41:45;;;;;;;0.00;0.00;;;;;;;17.39;100.00;101380.25;5033190;28;20429;-49
2023/07/19 03:44:11;;;;;;;0.00;0.00;;;;;;;17.41;100.00;101383.63;5033052;28;20052;-51
2023/07/19 03:46:36;;;;;;;0.00;0.00;;;;;;;17.42;100.00;101363.50;5032986;28;20068;-47
2023/07/19 03:49:01;;;;;;;0.00;0.00;;;;;;;17.42;100.00;101375.22;5034249;28;20105;-46
2023/07/19 03:51:27;;;;;;;0.00;0.00;;;;;;;17.42;100.00;101374.38;5035752;28;20029;-47
2023/07/19 03:53:52;;;;;;;0.00;0.00;;;;;;;17.44;100.00;101380.47;5033494;28;20087;-48
2023/07/19 03:56:18;;;;;;;0.00;0.00;;;;;;;17.46;100.00;101379.19;5033081;28;20362;-46
2023/07/19 03:58:48;;;;;;;0.00;0.00;;;;;;;17.49;100.00;101373.31;5032935;28;20025;-46
2023/07/19 04:01:14;;;;;;;0.00;0.00;;;;;;;17.47;100.00;101378.13;5047171;28;20116;-50
2023/07/19 04:03:40;;;;;;;0.00;0.00;;;;;;;17.44;100.00;101375.03;5032583;28;20026;-46
2023/07/19 04:06:06;;;;;;;0.00;0.00;;;;;;;17.43;100.00;101376.06;5032459;28;20051;-46
2023/07/19 04:08:31;;;;;;;0.00;0.00;;;;;;;17.38;100.00;101362.25;5032932;28;20025;-47
2023/07/19 04:10:58;;;;;;;0.00;0.00;;;;;;;17.39;100.00;101363.94;5032416;28;20541;-50
2023/07/19 04:13:23;;;;;;;0.00;0.00;;;;;;;17.38;100.00;101367.69;5032541;28;20030;-47
2023/07/19 04:15:49;;;;;;;0.00;0.00;;;;;;;17.40;100.00;101360.16;5032550;28;20035;-46
2023/07/19 04:18:14;;;;;;;0.00;0.00;;;;;;;17.46;100.00;101370.19;5032558;28;20109;-47
2023/07/19 04:20:39;;;;;;;0.00;0.00;;;;;;;17.48;100.00;101385.28;5032460;28;20128;-47
2023/07/19 04:23:05;;;;;;;0.00;0.00;;;;;;;17.51;100.00;101373.94;5032144;28;20083;-47
2023/07/19 04:25:31;;;;;;;0.00;0.00;;;;;;;17.53;100.00;101371.00;5032692;28;20045;-50
2023/07/19 04:27:56;;;;;;;0.00;0.00;;;;;;;17.56;100.00;101376.00;5032213;28;20476;-50
2023/07/19 04:30:22;;;;;;;0.00;0.00;;;;;;;17.55;100.00;101371.63;5032147;28;20052;-50
2023/07/19 04:32:48;;;;;;;0.00;0.00;;;;;;;17.53;100.00;101371.81;5031214;28;20040;-49
2023/07/19 04:35:14;;;;;;;0.00;0.00;;;;;;;17.52;100.00;101372.06;5032040;28;20049;-48
2023/07/19 04:37:40;;;;;;;0.00;0.00;;;;;;;17.54;100.00;101373.50;5032191;28;20052;-51
2023/07/19 04:40:09;;;;;;;0.00;0.00;;;;;;;17.51;100.00;101378.56;5032083;28;20033;-47
2023/07/19 04:42:34;;;;;;;0.00;0.00;;;;;;;17.54;100.00;101386.28;5030809;28;20021;-48
2023/07/19 04:45:00;;;;;;;0.00;0.00;;;;;;;17.57;100.00;101380.41;5030643;28;20026;-49
2023/07/19 04:47:25;;;;;;;0.00;0.00;;;;;;;17.62;100.00;101374.34;5031934;28;20076;-47
2023/07/19 04:49:51;;;;;;;0.00;0.00;;;;;;;17.64;100.00;101378.50;5031787;28;20013;-47
2023/07/19 04:52:16;;;;;;;0.00;0.00;;;;;;;17.63;100.00;101381.44;5031771;28;20030;-47
2023/07/19 04:54:41;;;;;;;0.00;0.00;;;;;;;17.67;100.00;101377.25;5031954;28;20053;-48
2023/07/19 04:57:07;;;;;;;0.00;0.00;;;;;;;17.73;100.00;101377.19;5031677;28;20045;-45
2023/07/19 04:59:32;;;;;;;0.00;0.00;;;;;;;17.77;100.00;101389.34;5031646;28;20261;-46
2023/07/19 05:01:58;;;;;;;0.00;0.00;;;;;;;17.80;100.00;101392.69;5031492;28;20439;-47
2023/07/19 05:04:23;;;;;;;0.00;0.00;;;;;;;17.83;100.00;101389.56;5031357;28;20033;-47
2023/07/19 05:06:49;;;;;;;0.00;0.00;;;;;;;17.88;100.00;101396.03;5040505;28;20063;-46
2023/07/19 05:09:15;;;;;;;0.00;0.00;;;;;;;17.98;100.00;101400.97;5050468;28;20048;-48
2023/07/19 05:11:41;;;;;;;0.00;0.00;;;;;;;18.05;100.00;101400.97;5051207;28;20108;-48
2023/07/19 05:14:06;;;;;;;0.20;0.00;;;;;;;18.12;100.00;101391.69;5050757;28;20459;-48
2023/07/19 05:16:33;;;;;;;0.00;0.00;;;;;;;18.08;100.00;101381.44;5051057;28;20033;-47
2023/07/19 05:18:58;;;;;;;0.00;0.00;;;;;;;18.13;100.00;101378.91;5052158;28;20391;-48
2023/07/19 05:21:24;;;;;;;0.00;0.00;;;;;;;18.17;100.00;101378.25;5053143;28;20028;-47
2023/07/19 05:23:49;;;;;;;0.00;0.00;;;;;;;18.17;100.00;101371.97;5052849;28;20497;-47
2023/07/19 05:26:15;;;;;;;0.00;0.00;;;;;;;18.15;100.00;101374.91;5052387;28;20039;-49
2023/07/19 05:28:40;;;;;;;0.00;0.00;;;;;;;18.18;100.00;101363.56;5051775;28;20103;-47
2023/07/19 05:31:08;;;;;;;0.00;0.00;;;;;;;18.28;100.00;101365.00;5051311;28;20418;-51
2023/07/19 05:33:33;;;;;;;0.00;0.00;;;;;;;18.30;100.00;101371.88;5051178;28;20340;-46
2023/07/19 05:36:00;;;;;;;0.00;0.00;;;;;;;18.32;100.00;101379.81;5050880;28;20025;-47
2023/07/19 05:38:26;;;;;;;0.00;0.00;;;;;;;18.40;100.00;101372.25;5051070;28;20108;-48
2023/07/19 05:40:51;;;;;;;0.00;0.00;;;;;;;18.55;100.00;101362.88;5051000;28;20029;-45
2023/07/19 05:43:17;;;;;;;0.00;0.00;;;;;;;18.57;100.00;101360.78;5050582;28;20036;-46
2023/07/19 05:45:42;;;;;;;0.00;0.00;;;;;;;18.65;100.00;101358.59;5051266;28;20029;-46
2023/07/19 05:48:07;;;;;;;0.00;0.00;;;;;;;18.62;100.00;101366.41;5051168;28;20041;-47
2023/07/19 05:50:33;;;;;;;0.00;0.00;;;;;;;18.64;100.00;101354.22;5051113;28;20100;-48
2023/07/19 05:52:58;;;;;;;0.00;0.00;;;;;;;18.81;100.00;101343.59;5050920;28;20029;-48
2023/07/19 05:55:24;;;;;;;0.00;0.00;;;;;;;18.94;100.00;101353.56;5050819;28;20360;-47
2023/07/19 05:57:49;;;;;;;0.00;0.00;;;;;;;19.12;100.00;101347.28;5050514;28;20044;-49
2023/07/19 06:00:28;;;;;;;0.00;0.00;;;;;;;19.13;100.00;101326.28;5050825;28;20032;-48
2023/07/19 06:02:56;;;;;;;0.00;0.00;;;;;;;19.33;100.00;101331.53;5050573;28;20308;-47
2023/07/19 06:05:25;;;;;;;0.00;0.00;;;;;;;19.42;100.00;101309.13;5051060;28;20047;-51
2023/07/19 06:07:50;;;;;;;0.00;0.00;;;;;;;19.53;100.00;101308.34;5051021;28;20021;-49
2023/07/19 06:10:16;;;;;;;0.00;0.00;;;;;;;19.74;100.00;101311.69;5051686;28;20071;-48
2023/07/19 06:12:43;;;;;;;0.00;0.00;;;;;;;19.91;100.00;101307.25;5051062;28;20127;-49
2023/07/19 06:15:09;;;;;;;0.00;0.00;;;;;;;20.03;100.00;101303.72;5051213;28;20506;-47
2023/07/19 06:17:34;;;;;;;0.00;0.00;;;;;;;20.18;100.00;101295.91;5051299;28;20034;-49
2023/07/19 06:20:00;;;;;;;0.00;0.00;;;;;;;20.30;100.00;101299.50;5050374;28;20029;-49
2023/07/19 06:22:25;;;;;;;0.00;0.00;;;;;;;20.36;100.00;101292.25;5050583;28;20501;-47
2023/07/19 06:24:51;;;;;;;0.00;0.00;;;;;;;20.57;100.00;101304.56;5050463;28;20032;-48
2023/07/19 06:27:16;;;;;;;0.00;0.00;;;;;;;20.90;100.00;101303.09;5050420;28;20158;-46
2023/07/19 06:29:43;;;;;;;0.00;0.00;;;;;;;21.23;100.00;101302.47;5051039;28;20021;-48
2023/07/19 06:32:09;;;;;;;0.00;0.00;;;;;;;20.95;100.00;101290.34;5050231;28;20036;-47
2023/07/19 06:34:34;;;;;;;0.00;0.00;;;;;;;21.41;100.00;101296.03;5050490;28;20029;-47
2023/07/19 06:36:59;;;;;;;0.00;0.00;;;;;;;22.01;100.00;101303.75;5049954;28;20167;-47
2023/07/19 06:39:25;;;;;;;0.00;0.00;;;;;;;22.13;100.00;101293.50;5048776;28;20040;-47
2023/07/19 06:41:50;;;;;;;0.00;0.00;;;;;;;22.14;100.00;101297.06;5050124;28;20033;-45
2023/07/19 06:44:15;;;;;;;0.00;0.00;;;;;;;22.03;100.00;101301.56;5050865;28;20082;-46
2023/07/19 06:46:41;;;;;;;0.00;0.00;;;;;;;21.95;100.00;101301.13;5051567;28;20308;-46
2023/07/19 06:49:07;;;;;;;0.00;0.00;;;;;;;21.86;100.00;101306.19;5051442;28;20391;-46
2023/07/19 06:51:32;;;;;;;0.00;0.00;;;;;;;21.99;100.00;101303.16;5051192;28;20463;-47
2023/07/19 06:53:58;;;;;;;0.00;0.00;;;;;;;22.63;100.00;101311.06;5050186;28;20029;-48
2023/07/19 06:56:23;;;;;;;0.00;0.00;;;;;;;22.68;100.00;101296.63;5053072;28;20053;-45
2023/07/19 06:58:49;;;;;;;0.00;0.00;;;;;;;23.12;100.00;101303.03;5053655;28;20029;-47
2023/07/19 07:01:14;;;;;;;0.00;0.00;;;;;;;23.52;100.00;101306.53;5053621;28;20035;-47
2023/07/19 07:03:39;;;;;;;0.00;0.00;;;;;;;23.82;100.00;101306.06;5053456;28;20025;-47
2023/07/19 07:06:05;;;;;;;0.00;0.00;;;;;;;24.57;100.00;101308.94;5053816;28;20025;-44
2023/07/19 07:08:31;;;;;;;0.00;0.00;;;;;;;25.16;100.00;101309.59;5053482;28;20037;-45
2023/07/19 07:10:59;;;;;;;0.00;0.00;;;;;;;25.26;100.00;101308.00;5053718;28;20435;-50
2023/07/19 07:13:24;;;;;;;0.00;0.00;;;;;;;25.11;100.00;101305.94;5052983;28;20029;-46
2023/07/19 07:15:51;;;;;;;0.00;0.00;;;;;;;24.79;100.00;101306.88;5053483;28;20021;-46
2023/07/19 07:18:16;;;;;;;0.00;0.00;;;;;;;24.60;100.00;101306.50;5053335;28;20056;-50
2023/07/19 07:20:42;;;;;;;0.00;0.00;;;;;;;24.60;100.00;101312.00;5053405;28;20053;-50
2023/07/19 07:23:07;;;;;;;0.00;0.00;;;;;;;25.45;100.00;101300.88;5053032;28;20053;-47
2023/07/19 07:25:33;;;;;;;0.00;0.00;;;;;;;26.31;100.00;101307.69;5053201;28;20083;-45
2023/07/19 07:27:59;;;;;;;0.00;0.00;;;;;;;26.76;100.00;101308.75;5052924;28;20040;-45
2023/07/19 07:30:25;;;;;;;0.00;0.00;;;;;;;26.09;98.22;101305.19;5053139;28;20029;-48
2023/07/19 07:32:50;;;;;;;0.00;0.00;;;;;;;25.17;100.00;101302.16;5052941;28;20434;-45
2023/07/19 07:35:16;;;;;;;0.00;0.00;;;;;;;24.40;100.00;101306.31;5053327;28;20029;-46
2023/07/19 07:37:41;;;;;;;0.00;0.00;;;;;;;23.79;100.00;101299.16;5053150;28;20029;-47
2023/07/19 07:40:08;;;;;;;0.00;0.00;;;;;;;23.25;100.00;101300.97;5052978;28;20029;-47
2023/07/19 07:42:34;;;;;;;0.00;0.00;;;;;;;22.85;100.00;101302.88;5052948;28;20039;-45
2023/07/19 07:44:59;;;;;;;0.00;0.00;;;;;;;23.08;100.00;101306.53;5052734;28;20036;-48
2023/07/19 07:47:25;;;;;;;0.00;0.00;;;;;;;23.48;100.00;101299.88;5052978;28;20029;-49
2023/07/19 07:49:51;;;;;;;0.00;0.00;;;;;;;23.95;100.00;101307.56;5052562;28;20028;-49
2023/07/19 07:52:17;;;;;;;0.00;0.00;;;;;;;24.84;100.00;101312.44;5052373;28;20025;-45
2023/07/19 07:54:42;;;;;;;0.00;0.00;;;;;;;24.86;100.00;101303.91;5034961;28;20543;-47
2023/07/19 07:57:07;;;;;;;0.00;0.00;;;;;;;24.66;100.00;101308.19;5033091;28;20133;-46
2023/07/19 07:59:34;;;;;;;0.00;0.00;;;;;;;24.22;100.00;101302.03;5033684;28;20057;-46
2023/07/19 08:01:59;;;;;;;0.00;0.00;;;;;;;23.50;100.00;101294.97;5032908;28;20095;-44
2023/07/19 08:04:25;;;;;;;0.00;0.00;;;;;;;23.08;100.00;101301.03;5032270;28;20488;-50
2023/07/19 08:06:50;;;;;;;0.10;0.00;;;;;;;22.45;100.00;101297.63;5032215;28;20544;-47
2023/07/19 08:09:15;;;;;;;0.00;0.00;;;;;;;22.32;100.00;101296.03;5032446;28;20035;-46
2023/07/19 08:11:41;;;;;;;0.00;0.00;;;;;;;22.43;100.00;101295.13;5032297;28;20033;-47
2023/07/19 08:14:06;;;;;;;0.00;0.00;;;;;;;22.22;100.00;101291.25;5032120;28;20013;-46
2023/07/19 08:16:32;;;;;;;0.00;0.00;;;;;;;22.04;100.00;101289.53;5032395;28;20025;-44
2023/07/19 08:18:57;;;;;;;0.00;0.00;;;;;;;22.06;100.00;101295.56;5032379;28;20443;-46
2023/07/19 08:21:24;;;;;;;0.00;0.00;;;;;;;21.98;100.00;101298.72;5032345;28;20071;-47
2023/07/19 08:23:53;;;;;;;;;;;;;;;22.02;100.00;101297.16;5034036;28;20028;-46
2023/07/19 08:26:19;;;;;;;0.00;0.00;;;;;;;22.36;100.00;101289.00;5031839;28;19991;-47
2023/07/19 08:28:44;;;;;;;0.00;0.00;;;;;;;23.24;100.00;101286.41;5032468;28;20076;-47
2023/07/19 08:31:10;;;;;;;0.00;0.00;;;;;;;24.42;100.00;101290.38;5033334;28;20423;-46
2023/07/19 08:33:35;;;;;;;0.00;0.00;;;;;;;24.75;100.00;101297.50;5033296;28;20029;-47
2023/07/19 08:36:01;;;;;;;0.00;0.00;;;;;;;24.58;100.00;101294.91;5032814;28;20021;-45
2023/07/19 08:38:26;;;;;;;0.00;0.00;;;;;;;23.96;100.00;101290.81;5033231;28;20021;-45
2023/07/19 08:41:02;;;;;;;0.00;0.00;;;;;;;23.35;100.00;101296.44;5032370;28;20052;-46
2023/07/19 08:43:29;;;;;;;0.00;0.00;;;;;;;23.20;100.00;101293.53;5032996;28;20036;-47
2023/07/19 08:45:55;;;;;;;0.00;0.00;;;;;;;23.16;100.00;101292.34;5048583;28;20036;-47
2023/07/19 08:48:21;;;;;;;0.00;0.00;;;;;;;23.15;100.00;101293.47;5032285;28;20021;-48
2023/07/19 08:50:53;;;;;;;0.00;0.00;;;;;;;23.13;100.00;101298.38;5047320;28;20598;-45
2023/07/19 08:53:19;;;;;;;0.00;0.00;;;;;;;23.07;100.00;101288.41;5032485;28;20502;-46
2023/07/19 08:55:44;;;;;;;0.00;0.00;;;;;;;23.03;100.00;101292.72;5030851;28;20033;-47
2023/07/19 08:58:09;;;;;;;0.00;0.00;;;;;;;22.88;100.00;101296.91;5031792;28;20080;-46
2023/07/19 09:00:35;;;;;;;0.00;0.00;;;;;;;22.72;100.00;101297.75;5031590;28;20497;-49
2023/07/19 09:03:00;;;;;;;0.00;0.00;;;;;;;22.55;100.00;101300.53;5031601;28;20060;-46
2023/07/19 09:05:28;;;;;;;0.00;0.00;;;;;;;22.48;100.00;101295.19;5029924;28;20040;-50
2023/07/19 09:07:59;;;;;;;0.00;0.00;;;;;;;22.24;100.00;101300.03;5031339;28;20120;-49
2023/07/19 09:10:25;;;;;;;0.00;0.00;;;;;;;22.17;100.00;101303.97;5031524;28;20033;-48
2023/07/19 09:12:50;;;;;;;0.00;0.00;;;;;;;22.23;100.00;101308.53;5031173;28;20053;-47
2023/07/19 09:15:15;;;;;;;0.00;0.00;;;;;;;22.49;100.00;101299.63;5031124;28;20079;-48
2023/07/19 09:17:46;;;;;;;0.00;0.00;;;;;;;22.75;100.00;101308.25;5030846;28;20049;-48
2023/07/19 09:20:12;;;;;;;0.00;0.00;;;;;;;22.76;100.00;101309.91;5031191;28;20418;-46
2023/07/19 09:22:38;;;;;;;0.00;0.00;;;;;;;22.88;100.00;101307.91;5031058;28;20028;-47
2023/07/19 09:25:05;;;;;;;0.00;0.00;;;;;;;22.83;100.00;101310.56;5031218;28;20037;-50
2023/07/19 09:27:32;;;;;;;0.00;0.00;;;;;;;22.92;100.00;101305.47;5031158;28;20117;-48
2023/07/19 09:29:57;;;;;;;0.00;0.00;;;;;;;22.67;100.00;101305.91;5046405;28;20025;-48
2023/07/19 09:32:23;;;;;;;0.00;0.00;;;;;;;22.85;100.00;101319.34;5030992;28;20033;-49
2023/07/19 09:34:52;;;;;;;0.00;0.00;;;;;;;22.85;100.00;101313.84;5031079;28;20109;-49
2023/07/19 09:37:20;;;;;;;0.00;0.00;;;;;;;22.90;100.00;101322.16;5030798;28;20034;-46
2023/07/19 09:39:45;;;;;;;;;;;;;;;22.84;100.00;101314.97;5031401;28;20053;-48
2023/07/19 09:42:13;;;;;;;0.00;0.00;;;;;;;22.83;100.00;101318.78;5029556;28;19956;-47
2023/07/19 09:44:39;;;;;;;0.00;0.00;;;;;;;22.72;100.00;101311.47;5029677;28;20026;-48
2023/07/19 09:47:08;;;;;;;0.00;0.00;;;;;;;22.72;100.00;101314.22;5030730;28;20053;-50
2023/07/19 09:49:36;;;;;;;0.00;0.00;;;;;;;22.79;100.00;101303.91;5029506;28;20029;-49
2023/07/19 09:52:02;;;;;;;0.00;0.00;;;;;;;22.83;100.00;101310.56;5046039;28;20480;-50
2023/07/19 09:54:30;;;;;;;0.00;0.00;;;;;;;23.07;100.00;101316.69;5031134;28;20411;-49
2023/07/19 09:56:56;;;;;;;0.00;0.00;;;;;;;23.16;100.00;101308.84;5030479;28;20045;-49
2023/07/19 09:59:36;;;;;;;0.00;0.00;;;;;;;23.04;100.00;101310.84;5029256;28;20109;-49
2023/07/19 10:02:02;;;;;;;0.00;0.00;;;;;;;23.06;100.00;101312.25;5045706;28;20029;-47
2023/07/19 10:04:29;;;;;;;0.00;0.00;;;;;;;23.34;100.00;101315.94;5029119;28;20029;-47
2023/07/19 10:07:08;;;;;;;0.00;0.00;;;;;;;23.47;100.00;101315.53;5030949;28;20112;-47
2023/07/19 10:09:37;;;;;;;0.00;0.00;;;;;;;23.37;100.00;101312.66;5030789;28;20109;-46
2023/07/19 10:12:07;;;;;;;0.00;0.00;;;;;;;23.32;100.00;101312.59;5031622;28;20368;-45
2023/07/19 10:14:33;;;;;;;0.00;0.00;;;;;;;23.29;100.00;101313.94;5030675;28;20061;-48
2023/07/19 10:17:03;;;;;;;0.00;0.00;;;;;;;23.32;100.00;101316.16;5045828;28;20495;-48
2023/07/19 10:19:28;;;;;;;0.00;0.00;;;;;;;23.35;100.00;101312.91;5030705;28;20026;-48
2023/07/19 10:22:05;;;;;;;0.00;0.00;;;;;;;23.29;100.00;101318.63;5030366;28;20032;-50
2023/07/19 10:24:32;;;;;;;0.00;0.00;;;;;;;23.34;100.00;101315.94;5045835;28;20024;-48
2023/07/19 10:27:07;;;;;;;0.00;0.00;;;;;;;23.24;100.00;101327.59;5029079;28;20368;-48
2023/07/19 10:29:46;;;;;;;0.00;0.00;;;;;;;23.09;100.00;101324.66;5045960;28;20030;-50
2023/07/19 10:32:12;;;;;;;0.00;0.00;;;;;;;23.12;100.00;101324.16;5034523;28;20021;-47
2023/07/19 10:34:38;;;;;;;0.00;0.00;;;;;;;23.16;100.00;101328.06;5033527;28;20492;-49
2023/07/19 10:37:04;;;;;;;0.00;0.00;;;;;;;23.21;100.00;101331.69;5049975;28;20464;-47
2023/07/19 10:39:31;;;;;;;0.00;0.00;;;;;;;23.32;100.00;101329.09;5034581;28;20061;-47
2023/07/19 10:41:56;;;;;;;0.00;0.00;;;;;;;23.43;100.00;101325.38;5034626;28;20035;-44
2023/07/19 10:44:22;;;;;;;0.00;0.00;;;;;;;23.44;100.00;101329.78;5034448;28;20149;-47
2023/07/19 10:46:48;;;;;;;0.00;0.00;;;;;;;23.55;100.00;101323.31;5034139;28;20105;-47
2023/07/19 10:49:14;;;;;;;0.00;0.00;;;;;;;23.77;100.00;101320.56;5034414;28;20097;-46
2023/07/19 10:51:39;;;;;;;0.00;0.00;;;;;;;23.96;100.00;101328.44;5032834;28;20083;-47
2023/07/19 10:54:06;;;;;;;0.00;0.00;;;;;;;24.05;100.00;101327.72;5033944;28;20426;-46
2023/07/19 10:56:32;;;;;;;0.00;0.00;;;;;;;24.18;100.00;101326.47;5033796;28;20045;-45
2023/07/19 10:59:00;;;;;;;0.00;0.00;;;;;;;24.17;100.00;101330.34;5034175;28;20029;-49
2023/07/19 11:01:28;;;;;;;0.00;0.00;;;;;;;24.09;100.00;101333.53;5033693;28;20053;-46
2023/07/19 11:03:54;;;;;;;0.00;0.00;;;;;;;24.02;100.00;101338.44;5033643;28;20490;-49
2023/07/19 11:06:20;;;;;;;0.00;0.00;;;;;;;23.86;100.00;101329.19;5033778;28;20049;-45
2023/07/19 11:08:46;;;;;;;0.00;0.00;;;;;;;23.70;100.00;101328.19;5033719;28;20018;-45
2023/07/19 11:11:13;;;;;;;0.10;0.00;;;;;;;23.58;100.00;101332.97;5033599;28;20502;-47